PATK/TKA METAR and TAF weather

Enter ICAO airport designator
Station Type Date Time Source
PATK METAR 2021/03/06 00:53 UTC NOAA

PATK 060053Z 00000KT 10SM SCT070 BKN085 M01/M09 A2943 RMK AO2 SLP972 T10111089


Station Type Date Time Source
PATK Decoded METAR 2021/03/06 00:53 UTC NOAA

TALKEETNA AIRPORT, AK, United States (PATK) 62-19N 150-06W 109M
Mar 05, 2021 - 07:53 PM EST / 2021.03.06 0053 UTC
Wind: Calm:0
Visibility: 10 mile(s):0
Sky conditions: mostly cloudy
Temperature: 30.0 F (-1.1 C)
Dew Point: 16.0 F (-8.9 C)
Relative Humidity: 55%
Pressure (altimeter): 29.43 in. Hg (996 hPa)
ob: PATK 060053Z 00000KT 10SM SCT070 BKN085 M01/M09 A2943 RMK AO2 SLP972 T10111089
cycle: 1

Station Type Date Time Source
PATK TAF 2021/03/05 18:27 UTC NOAA

TAF PATK 051724Z 0518/0618 02011KT 6SM -SN BR SCT010 OVC035
FM052200 02005KT P6SM OVC050

Example: see airport list